createdAt,value
2023-04-26T00:00:02.072Z,4.98
2023-04-26T00:02:28.856Z,4.95
2023-04-26T00:04:55.692Z,4.93
2023-04-26T00:07:22.626Z,4.91
2023-04-26T00:09:48.779Z,4.91
2023-04-26T00:12:15.050Z,4.90
2023-04-26T00:14:41.232Z,4.90
2023-04-26T00:17:07.354Z,4.91
2023-04-26T00:19:33.631Z,4.91
2023-04-26T00:21:59.739Z,4.92
2023-04-26T00:24:25.817Z,4.90
2023-04-26T00:26:52.118Z,4.89
2023-04-26T00:29:18.228Z,4.89
2023-04-26T00:31:44.368Z,4.89
2023-04-26T00:34:10.479Z,4.89
2023-04-26T00:36:36.602Z,4.88
2023-04-26T00:39:02.745Z,4.91
2023-04-26T00:41:28.872Z,4.91
2023-04-26T00:43:55.156Z,4.90
2023-04-26T00:46:21.406Z,4.91
2023-04-26T00:48:47.684Z,4.92
2023-04-26T00:51:13.793Z,4.91
2023-04-26T00:53:39.882Z,4.91
2023-04-26T00:56:06.080Z,4.91
2023-04-26T00:58:32.524Z,4.91
2023-04-26T01:00:58.811Z,4.92
2023-04-26T01:03:26.164Z,4.91
2023-04-26T01:05:52.430Z,4.88
2023-04-26T01:08:20.284Z,4.84
2023-04-26T01:10:46.367Z,4.79
2023-04-26T01:13:12.595Z,4.75
2023-04-26T01:15:38.660Z,4.70
2023-04-26T01:18:04.836Z,4.68
2023-04-26T01:20:31.622Z,4.66
2023-04-26T01:22:57.730Z,4.63
2023-04-26T01:25:23.898Z,4.61
2023-04-26T01:27:50.282Z,4.60
2023-04-26T01:30:16.529Z,4.60
2023-04-26T01:32:42.682Z,4.60
2023-04-26T01:35:09.108Z,4.60
2023-04-26T01:37:35.252Z,4.59
2023-04-26T01:40:01.481Z,4.58
2023-04-26T01:42:27.664Z,4.55
2023-04-26T01:44:53.833Z,4.54
2023-04-26T01:47:20.164Z,4.54
2023-04-26T01:49:46.292Z,4.52
2023-04-26T01:52:12.371Z,4.52
2023-04-26T01:54:38.524Z,4.51
2023-04-26T01:57:04.670Z,4.48
2023-04-26T01:59:30.774Z,4.48
2023-04-26T02:01:57.168Z,4.47
2023-04-26T02:04:23.667Z,4.44
2023-04-26T02:06:50.065Z,4.44
2023-04-26T02:09:16.224Z,4.46
2023-04-26T02:11:42.372Z,4.44
2023-04-26T02:14:08.519Z,4.42
2023-04-26T02:16:34.676Z,4.40
2023-04-26T02:19:00.852Z,4.36
2023-04-26T02:21:27.620Z,4.32
2023-04-26T02:23:53.898Z,4.27
2023-04-26T02:26:20.017Z,4.24
2023-04-26T02:28:46.233Z,4.22
2023-04-26T02:31:12.327Z,4.20
2023-04-26T02:33:38.513Z,4.19
2023-04-26T02:36:05.409Z,4.20
2023-04-26T02:38:31.537Z,4.18
2023-04-26T02:40:57.633Z,4.15
2023-04-26T02:43:23.706Z,4.15
2023-04-26T02:45:49.805Z,4.13
2023-04-26T02:48:15.967Z,4.08
2023-04-26T02:50:42.096Z,4.05
2023-04-26T02:53:08.240Z,4.01
2023-04-26T02:55:34.364Z,3.96
2023-04-26T02:58:00.495Z,3.93
2023-04-26T03:00:27.204Z,3.89
2023-04-26T03:02:53.714Z,3.89
2023-04-26T03:05:20.109Z,3.86
2023-04-26T03:07:46.298Z,3.84
2023-04-26T03:10:12.696Z,3.81
2023-04-26T03:12:38.848Z,3.78
2023-04-26T03:15:04.929Z,3.74
2023-04-26T03:17:31.132Z,3.70
2023-04-26T03:19:57.400Z,3.67
2023-04-26T03:22:23.705Z,3.64
2023-04-26T03:24:50.086Z,3.60
2023-04-26T03:27:16.475Z,3.56
2023-04-26T03:29:44.141Z,3.55
2023-04-26T03:32:10.678Z,3.55
2023-04-26T03:34:37.156Z,3.53
2023-04-26T03:37:03.255Z,3.51
2023-04-26T03:39:29.428Z,3.47
2023-04-26T03:41:55.583Z,3.42
2023-04-26T03:44:21.737Z,3.38
2023-04-26T03:46:47.962Z,3.35
2023-04-26T03:49:14.199Z,3.32
2023-04-26T03:51:40.780Z,3.32
2023-04-26T03:54:06.943Z,3.33
2023-04-26T03:56:33.010Z,3.32
2023-04-26T03:58:59.122Z,3.30
2023-04-26T04:01:25.503Z,3.30
2023-04-26T04:03:51.808Z,3.32
2023-04-26T04:06:18.364Z,3.34
2023-04-26T04:08:44.492Z,3.36
2023-04-26T04:11:10.559Z,3.39
2023-04-26T04:13:36.961Z,3.40
2023-04-26T04:16:04.177Z,3.40
2023-04-26T04:18:30.419Z,3.40
2023-04-26T04:20:56.614Z,3.42
2023-04-26T04:23:22.709Z,3.43
2023-04-26T04:25:50.919Z,3.43
2023-04-26T04:28:17.000Z,3.44
2023-04-26T04:30:43.689Z,3.46
2023-04-26T04:33:09.816Z,3.48
2023-04-26T04:35:36.357Z,3.51
2023-04-26T04:38:02.667Z,3.56
2023-04-26T04:40:28.775Z,3.63
2023-04-26T04:42:54.828Z,3.71
2023-04-26T04:45:21.099Z,3.75
2023-04-26T04:47:47.733Z,3.79
2023-04-26T04:50:14.096Z,3.85
2023-04-26T04:52:40.552Z,3.88
2023-04-26T04:55:06.696Z,3.85
2023-04-26T04:57:32.819Z,3.83
2023-04-26T05:00:03.007Z,3.81
2023-04-26T05:02:29.191Z,3.81
2023-04-26T05:04:55.685Z,3.81
2023-04-26T05:07:23.304Z,3.80
2023-04-26T05:09:50.882Z,3.78
2023-04-26T05:12:16.985Z,3.79
2023-04-26T05:14:43.159Z,3.77
2023-04-26T05:17:09.233Z,3.72
2023-04-26T05:19:36.534Z,3.72
2023-04-26T05:22:03.292Z,3.73
2023-04-26T05:24:30.863Z,3.73
2023-04-26T05:26:57.932Z,3.72
2023-04-26T05:29:24.130Z,3.72
2023-04-26T05:31:50.466Z,3.74
2023-04-26T05:34:16.620Z,3.78
2023-04-26T05:36:43.013Z,3.82
2023-04-26T05:39:09.264Z,3.82
2023-04-26T05:41:35.591Z,3.80
2023-04-26T05:44:01.705Z,3.80
2023-04-26T05:46:28.009Z,3.89
2023-04-26T05:48:54.332Z,3.91
2023-04-26T05:51:20.462Z,3.92
2023-04-26T05:53:46.655Z,3.93
2023-04-26T05:56:12.766Z,3.89
2023-04-26T05:58:39.034Z,3.80
2023-04-26T06:01:05.520Z,3.71
2023-04-26T06:03:32.215Z,3.64
2023-04-26T06:05:58.589Z,3.64
2023-04-26T06:08:25.922Z,3.65
2023-04-26T06:10:52.368Z,3.66
2023-04-26T06:13:18.510Z,3.66
2023-04-26T06:15:44.662Z,3.66
2023-04-26T06:18:10.807Z,3.66
2023-04-26T06:20:37.030Z,3.64
2023-04-26T06:23:03.973Z,3.68
2023-04-26T06:25:30.163Z,3.72
2023-04-26T06:27:58.032Z,3.75
2023-04-26T06:30:24.194Z,3.76
2023-04-26T06:32:50.447Z,3.80
2023-04-26T06:35:16.676Z,3.83
2023-04-26T06:37:43.085Z,3.89
2023-04-26T06:40:10.413Z,3.92
2023-04-26T06:42:36.835Z,3.96
2023-04-26T06:45:02.943Z,3.99
2023-04-26T06:47:29.103Z,4.04
2023-04-26T06:49:55.981Z,4.11
2023-04-26T06:52:22.105Z,4.16
2023-04-26T06:54:56.484Z,4.09
2023-04-26T06:57:23.551Z,4.03
2023-04-26T06:59:50.707Z,4.06
2023-04-26T07:02:17.019Z,4.08
2023-04-26T07:04:43.442Z,4.08
2023-04-26T07:07:13.002Z,4.09
2023-04-26T07:09:40.301Z,4.15
2023-04-26T07:12:06.839Z,4.23
2023-04-26T07:14:35.998Z,4.32
2023-04-26T07:17:03.816Z,4.36
2023-04-26T07:19:30.292Z,4.41
2023-04-26T07:21:56.404Z,4.40
2023-04-26T07:24:22.541Z,4.32
2023-04-26T07:26:49.046Z,4.27
2023-04-26T07:29:15.241Z,4.22
2023-04-26T07:31:41.378Z,4.20
2023-04-26T07:34:07.764Z,4.12
2023-04-26T07:36:33.843Z,4.08
2023-04-26T07:39:00.269Z,4.17
2023-04-26T07:41:26.399Z,4.30
2023-04-26T07:43:52.741Z,4.44
2023-04-26T07:46:19.236Z,4.48
2023-04-26T07:48:47.758Z,4.45
2023-04-26T07:51:13.897Z,4.37
2023-04-26T07:53:40.514Z,4.36
2023-04-26T07:56:09.645Z,4.32
2023-04-26T07:58:35.783Z,4.32
2023-04-26T08:01:02.077Z,4.32
2023-04-26T08:03:28.496Z,4.32
2023-04-26T08:05:55.203Z,4.38
2023-04-26T08:08:21.536Z,4.50
2023-04-26T08:10:47.723Z,4.56
2023-04-26T08:13:13.894Z,4.58
2023-04-26T08:15:40.664Z,4.54
2023-04-26T08:18:06.903Z,4.46
2023-04-26T08:20:33.125Z,4.38
2023-04-26T08:22:59.277Z,4.25
2023-04-26T08:25:25.421Z,4.13
2023-04-26T08:27:51.844Z,4.14
2023-04-26T08:30:18.469Z,4.22
2023-04-26T08:32:45.122Z,4.33
2023-04-26T08:35:11.339Z,4.44
2023-04-26T08:37:37.683Z,4.52
2023-04-26T08:40:03.927Z,4.58
2023-04-26T08:42:30.570Z,4.70
2023-04-26T08:44:56.717Z,4.86
2023-04-26T08:47:22.822Z,4.88
2023-04-26T08:49:52.317Z,4.86
2023-04-26T08:52:22.441Z,4.82
2023-04-26T08:54:48.645Z,4.67
2023-04-26T08:57:14.800Z,4.47
2023-04-26T08:59:41.322Z,4.36
2023-04-26T09:02:07.561Z,4.29
2023-04-26T09:04:34.043Z,4.22
2023-04-26T09:07:00.416Z,4.20
2023-04-26T09:09:29.431Z,4.17
2023-04-26T09:11:55.877Z,4.25
2023-04-26T09:14:21.960Z,4.34
2023-04-26T09:16:48.300Z,4.45
2023-04-26T09:19:14.444Z,4.63
2023-04-26T09:21:40.576Z,4.80
2023-04-26T09:24:06.742Z,5.00
2023-04-26T09:26:32.875Z,5.27
2023-04-26T09:28:59.056Z,5.38
2023-04-26T09:31:25.236Z,5.36
2023-04-26T09:33:51.321Z,5.29
2023-04-26T09:36:17.435Z,5.32
2023-04-26T09:38:43.581Z,5.34
2023-04-26T09:41:09.629Z,5.39
2023-04-26T09:43:36.407Z,5.46
2023-04-26T09:46:02.673Z,5.51
2023-04-26T09:48:30.066Z,5.47
2023-04-26T09:50:56.599Z,5.52
2023-04-26T09:53:22.766Z,5.69
2023-04-26T09:55:48.980Z,5.74
2023-04-26T09:58:16.042Z,5.69
2023-04-26T10:00:42.213Z,5.48
2023-04-26T10:03:09.446Z,5.36
2023-04-26T10:05:35.775Z,5.33
2023-04-26T10:08:03.034Z,5.29
2023-04-26T10:10:29.157Z,5.26
2023-04-26T10:12:55.582Z,5.32
2023-04-26T10:15:22.057Z,5.42
2023-04-26T10:17:49.654Z,5.47
2023-04-26T10:20:17.793Z,5.56
2023-04-26T10:22:44.074Z,5.62
2023-04-26T10:25:10.554Z,5.62
2023-04-26T10:27:36.679Z,5.66
2023-04-26T10:30:03.877Z,5.74
2023-04-26T10:32:31.337Z,5.59
2023-04-26T10:34:57.451Z,5.37
2023-04-26T10:37:23.578Z,5.23
2023-04-26T10:39:49.889Z,5.10
2023-04-26T10:42:23.568Z,5.04
2023-04-26T10:44:50.670Z,4.99
2023-04-26T10:47:16.784Z,4.83
2023-04-26T10:49:44.459Z,4.58
2023-04-26T10:52:11.145Z,4.35
2023-04-26T10:54:37.311Z,4.21
2023-04-26T10:57:03.707Z,4.04
2023-04-26T10:59:43.417Z,4.09
2023-04-26T11:02:16.746Z,4.18
2023-04-26T11:04:42.903Z,4.26
2023-04-26T11:07:09.309Z,4.32
2023-04-26T11:09:41.724Z,4.29
2023-04-26T11:12:08.183Z,4.38
2023-04-26T11:14:34.920Z,4.55
2023-04-26T11:17:01.003Z,4.78
2023-04-26T11:19:27.273Z,4.96
2023-04-26T11:21:54.584Z,5.12
2023-04-26T11:24:22.068Z,5.26
2023-04-26T11:26:48.210Z,5.35
2023-04-26T11:29:14.786Z,5.42
2023-04-26T11:31:41.016Z,5.51
2023-04-26T11:34:07.818Z,5.50
2023-04-26T11:36:34.040Z,5.56
2023-04-26T11:39:01.814Z,5.60
2023-04-26T11:41:28.033Z,5.66
2023-04-26T11:43:54.236Z,5.64
2023-04-26T11:46:20.691Z,5.57
2023-04-26T11:48:46.834Z,5.35
2023-04-26T11:51:12.922Z,5.26
2023-04-26T11:53:39.591Z,5.18
2023-04-26T11:56:05.738Z,5.17
2023-04-26T11:58:31.919Z,5.14
2023-04-26T12:00:58.219Z,5.12
2023-04-26T12:03:24.612Z,5.12
2023-04-26T12:05:50.821Z,5.13
2023-04-26T12:08:17.558Z,5.15
2023-04-26T12:10:43.663Z,5.20
2023-04-26T12:13:10.454Z,5.23
2023-04-26T12:15:36.736Z,5.27
2023-04-26T12:18:02.933Z,5.36
2023-04-26T12:20:29.185Z,5.47
2023-04-26T12:22:55.311Z,5.61
2023-04-26T12:25:21.701Z,5.76
2023-04-26T12:27:47.902Z,5.91
2023-04-26T12:30:14.241Z,5.93
2023-04-26T12:32:41.333Z,5.92
2023-04-26T12:35:07.427Z,5.80
2023-04-26T12:37:33.822Z,5.52
2023-04-26T12:40:00.480Z,5.25
2023-04-26T12:42:26.584Z,5.07
2023-04-26T12:44:52.762Z,4.89
2023-04-26T12:47:18.870Z,4.95
2023-04-26T12:49:45.089Z,5.05
2023-04-26T12:52:14.218Z,5.09
2023-04-26T12:54:40.405Z,5.06
2023-04-26T12:57:06.492Z,4.99
2023-04-26T12:59:32.991Z,5.13
2023-04-26T13:01:59.164Z,5.30
2023-04-26T13:04:25.588Z,5.46
2023-04-26T13:06:51.896Z,5.53
2023-04-26T13:09:18.210Z,5.66
2023-04-26T13:11:44.365Z,5.74
2023-04-26T13:14:11.271Z,5.84
2023-04-26T13:16:41.634Z,5.95
2023-04-26T13:19:07.861Z,5.86
2023-04-26T13:21:34.068Z,5.79
2023-04-26T13:24:00.570Z,5.73
2023-04-26T13:26:27.932Z,5.76
2023-04-26T13:28:54.228Z,5.82
2023-04-26T13:31:20.504Z,5.97
2023-04-26T13:33:48.491Z,6.17
2023-04-26T13:36:15.275Z,6.21
2023-04-26T13:38:41.344Z,6.16
2023-04-26T13:41:07.710Z,6.07
2023-04-26T13:43:33.875Z,5.97
2023-04-26T13:46:00.283Z,6.00
2023-04-26T13:48:26.429Z,6.01
2023-04-26T13:50:52.649Z,5.95
2023-04-26T13:53:21.872Z,5.84
2023-04-26T13:55:48.003Z,5.77
2023-04-26T13:58:14.583Z,5.72
2023-04-26T14:00:41.230Z,5.73
2023-04-26T14:03:07.627Z,5.73
2023-04-26T14:05:34.169Z,5.82
2023-04-26T14:08:00.309Z,5.88
2023-04-26T14:10:26.373Z,5.99
2023-04-26T14:12:52.872Z,6.05
2023-04-26T14:15:19.138Z,6.01
2023-04-26T14:17:46.240Z,6.01
2023-04-26T14:20:12.553Z,6.01
2023-04-26T14:22:38.633Z,6.00
2023-04-26T14:25:04.867Z,5.99
2023-04-26T14:27:31.075Z,6.01
2023-04-26T14:29:57.270Z,6.02
2023-04-26T14:32:23.497Z,6.01
2023-04-26T14:34:50.031Z,5.96
2023-04-26T14:37:16.148Z,5.91
2023-04-26T14:39:42.254Z,5.91
2023-04-26T14:42:08.432Z,5.99
2023-04-26T14:44:35.889Z,6.11
2023-04-26T14:47:01.971Z,6.25
2023-04-26T14:49:28.138Z,6.30
2023-04-26T14:51:54.284Z,6.31
2023-04-26T14:54:20.572Z,6.24
2023-04-26T14:56:46.830Z,6.13
2023-04-26T14:59:13.021Z,6.06
2023-04-26T15:01:39.362Z,6.04
2023-04-26T15:04:05.721Z,6.01
2023-04-26T15:06:33.440Z,6.02
2023-04-26T15:08:59.605Z,5.99
2023-04-26T15:11:25.738Z,5.99
2023-04-26T15:13:51.834Z,5.98
2023-04-26T15:16:18.690Z,6.01
2023-04-26T15:18:45.024Z,6.01
2023-04-26T15:21:11.101Z,6.01
2023-04-26T15:23:37.314Z,6.03
2023-04-26T15:26:03.726Z,6.04
2023-04-26T15:28:29.893Z,6.08
2023-04-26T15:30:56.098Z,6.11
2023-04-26T15:33:22.271Z,6.17
2023-04-26T15:35:50.251Z,6.19
2023-04-26T15:38:16.350Z,6.21
2023-04-26T15:40:42.489Z,6.20
2023-04-26T15:43:08.677Z,6.11
2023-04-26T15:45:35.218Z,6.08
2023-04-26T15:48:01.395Z,6.03
2023-04-26T15:50:27.528Z,6.00
2023-04-26T15:52:53.675Z,5.94
2023-04-26T15:55:20.340Z,5.91
2023-04-26T15:57:46.565Z,5.88
2023-04-26T16:00:13.512Z,5.91
2023-04-26T16:02:40.230Z,5.92
2023-04-26T16:05:07.440Z,5.92
2023-04-26T16:07:33.577Z,5.92
2023-04-26T16:09:59.958Z,5.90
2023-04-26T16:12:26.087Z,5.85
2023-04-26T16:14:52.325Z,5.79
2023-04-26T16:17:18.545Z,5.75
2023-04-26T16:19:44.750Z,5.73
2023-04-26T16:22:10.891Z,5.71
2023-04-26T16:24:37.006Z,5.70
2023-04-26T16:27:04.002Z,5.69
2023-04-26T16:29:30.346Z,5.66
2023-04-26T16:31:56.741Z,5.61
2023-04-26T16:34:23.023Z,5.56
2023-04-26T16:36:51.851Z,5.51
2023-04-26T16:39:19.044Z,5.46
2023-04-26T16:41:45.496Z,5.44
2023-04-26T16:44:11.658Z,5.41
2023-04-26T16:46:37.818Z,5.36
2023-04-26T16:49:08.745Z,5.42
2023-04-26T16:51:35.113Z,5.61
2023-04-26T16:54:01.378Z,5.49
2023-04-26T16:56:27.452Z,5.38
2023-04-26T16:58:53.628Z,5.28
2023-04-26T17:01:20.375Z,5.17
2023-04-26T17:03:48.001Z,5.10
2023-04-26T17:06:14.261Z,5.01
2023-04-26T17:08:40.435Z,4.97
2023-04-26T17:11:07.216Z,4.94
2023-04-26T17:13:33.427Z,4.95
2023-04-26T17:15:59.629Z,4.97
2023-04-26T17:18:26.020Z,4.95
2023-04-26T17:20:53.115Z,4.96
2023-04-26T17:23:19.338Z,4.94
2023-04-26T17:25:45.605Z,4.91
2023-04-26T17:28:13.507Z,4.88
2023-04-26T17:30:39.865Z,4.84
2023-04-26T17:33:06.863Z,4.81
2023-04-26T17:35:33.309Z,4.78
2023-04-26T17:37:59.399Z,4.75
2023-04-26T17:40:25.504Z,4.73
2023-04-26T17:42:51.675Z,4.69
2023-04-26T17:45:17.812Z,4.65
2023-04-26T17:47:44.899Z,4.63
2023-04-26T17:50:11.090Z,4.59
2023-04-26T17:52:37.302Z,4.52
2023-04-26T17:55:04.474Z,4.45
2023-04-26T17:57:30.652Z,4.39
2023-04-26T17:59:56.818Z,4.32
2023-04-26T18:02:23.292Z,4.27
2023-04-26T18:04:49.928Z,4.22
2023-04-26T18:07:16.280Z,4.23
2023-04-26T18:09:42.335Z,4.21
2023-04-26T18:12:08.511Z,4.22
2023-04-26T18:14:34.787Z,4.23
2023-04-26T18:17:00.992Z,4.25
2023-04-26T18:19:27.473Z,4.25
2023-04-26T18:21:53.638Z,4.28
2023-04-26T18:24:19.780Z,4.27
2023-04-26T18:26:45.973Z,4.21
2023-04-26T18:29:12.342Z,4.16
2023-04-26T18:31:38.720Z,4.11
2023-04-26T18:34:06.135Z,4.04
2023-04-26T18:36:32.266Z,3.98
2023-04-26T18:39:00.378Z,3.95
2023-04-26T18:41:27.220Z,3.90
2023-04-26T18:43:53.775Z,3.86
2023-04-26T18:46:20.643Z,3.80
2023-04-26T18:48:46.828Z,3.76
2023-04-26T18:51:13.058Z,3.70
2023-04-26T18:53:39.144Z,3.64
2023-04-26T18:56:05.283Z,3.60
2023-04-26T18:58:31.587Z,3.59
2023-04-26T19:00:57.699Z,3.60
2023-04-26T19:03:24.058Z,3.58
2023-04-26T19:05:50.637Z,3.55
2023-04-26T19:08:17.659Z,3.47
2023-04-26T19:10:43.839Z,3.36
2023-04-26T19:13:10.064Z,3.27
2023-04-26T19:15:36.195Z,3.20
2023-04-26T19:18:02.422Z,3.15
2023-04-26T19:20:30.889Z,3.11
2023-04-26T19:22:56.979Z,3.12
2023-04-26T19:25:23.666Z,3.14
2023-04-26T19:27:49.832Z,3.10
2023-04-26T19:30:15.952Z,3.05
2023-04-26T19:32:43.334Z,3.08
2023-04-26T19:35:09.624Z,3.11
2023-04-26T19:37:38.668Z,3.11
2023-04-26T19:40:09.389Z,3.10
2023-04-26T19:42:35.628Z,3.00
2023-04-26T19:45:01.926Z,2.66
2023-04-26T19:47:28.070Z,2.54
2023-04-26T19:49:56.565Z,2.55
2023-04-26T19:52:22.746Z,2.59
2023-04-26T19:54:48.887Z,2.61
2023-04-26T19:57:15.001Z,2.53
2023-04-26T19:59:41.193Z,2.45
2023-04-26T20:02:07.464Z,2.41
2023-04-26T20:04:34.005Z,2.37
2023-04-26T20:07:00.568Z,2.31
2023-04-26T20:09:26.756Z,2.27
2023-04-26T20:11:52.858Z,2.21
2023-04-26T20:14:18.962Z,2.20
2023-04-26T20:16:45.159Z,2.18
2023-04-26T20:19:11.359Z,2.14
2023-04-26T20:21:37.645Z,2.09
2023-04-26T20:24:03.717Z,2.04
2023-04-26T20:26:29.822Z,2.02
2023-04-26T20:28:55.932Z,2.04
2023-04-26T20:31:22.052Z,2.08
2023-04-26T20:33:48.218Z,2.11
2023-04-26T20:36:14.378Z,2.11
2023-04-26T20:38:40.729Z,2.13
2023-04-26T20:41:07.083Z,2.14
2023-04-26T20:43:33.177Z,2.17
2023-04-26T20:45:59.444Z,2.19
2023-04-26T20:48:25.744Z,2.22
2023-04-26T20:50:52.130Z,2.24
2023-04-26T20:53:18.216Z,2.28
2023-04-26T20:55:44.348Z,2.31
2023-04-26T20:58:10.456Z,2.33
2023-04-26T21:00:36.566Z,2.34
2023-04-26T21:03:02.972Z,2.34
2023-04-26T21:05:29.210Z,2.33
2023-04-26T21:07:55.884Z,2.31
2023-04-26T21:10:22.117Z,2.29
2023-04-26T21:12:48.273Z,2.25
2023-04-26T21:15:14.373Z,2.19
2023-04-26T21:17:40.734Z,2.11
2023-04-26T21:20:07.242Z,2.07
2023-04-26T21:22:33.489Z,2.04
2023-04-26T21:24:59.809Z,2.03
2023-04-26T21:27:26.279Z,2.04
2023-04-26T21:29:52.387Z,2.06
2023-04-26T21:32:18.823Z,2.08
2023-04-26T21:34:45.104Z,2.10
2023-04-26T21:37:11.286Z,2.07
2023-04-26T21:39:37.618Z,2.02
2023-04-26T21:42:03.786Z,1.98
2023-04-26T21:44:30.193Z,1.97
2023-04-26T21:46:57.006Z,1.94
2023-04-26T21:49:23.445Z,1.92
2023-04-26T21:51:49.753Z,1.87
2023-04-26T21:54:16.339Z,1.89
2023-04-26T21:56:42.632Z,1.88
2023-04-26T21:59:09.658Z,1.83
2023-04-26T22:01:36.265Z,1.80
2023-04-26T22:04:03.109Z,1.76
2023-04-26T22:06:29.379Z,1.73
2023-04-26T22:08:55.730Z,1.74
2023-04-26T22:11:21.911Z,1.75
2023-04-26T22:13:48.190Z,1.78
2023-04-26T22:16:14.477Z,1.77
2023-04-26T22:18:40.895Z,1.78
2023-04-26T22:21:07.133Z,1.68
2023-04-26T22:23:33.492Z,1.41
2023-04-26T22:26:00.080Z,1.28
2023-04-26T22:28:26.326Z,1.20
2023-04-26T22:30:52.537Z,1.12
2023-04-26T22:33:18.737Z,1.07
2023-04-26T22:35:45.035Z,1.01
2023-04-26T22:38:11.266Z,0.94
2023-04-26T22:40:37.392Z,0.87
2023-04-26T22:43:03.699Z,0.89
2023-04-26T22:45:29.954Z,0.98
2023-04-26T22:47:56.595Z,1.04
2023-04-26T22:50:23.155Z,1.07
2023-04-26T22:52:50.179Z,1.09
2023-04-26T22:55:16.359Z,1.11
2023-04-26T22:57:42.531Z,1.10
2023-04-26T23:00:09.528Z,1.09
2023-04-26T23:02:36.065Z,1.09
2023-04-26T23:05:04.505Z,1.07
2023-04-26T23:07:31.008Z,1.05
2023-04-26T23:09:57.245Z,1.00
2023-04-26T23:12:23.542Z,0.96
2023-04-26T23:14:50.129Z,0.94
2023-04-26T23:17:16.457Z,0.91
2023-04-26T23:19:42.755Z,0.87
2023-04-26T23:22:09.059Z,0.76
2023-04-26T23:24:35.757Z,0.62
2023-04-26T23:27:02.030Z,0.52
2023-04-26T23:29:28.244Z,0.40
2023-04-26T23:31:54.589Z,0.30
2023-04-26T23:34:20.929Z,0.29
2023-04-26T23:36:47.223Z,0.35
2023-04-26T23:39:13.569Z,0.39
2023-04-26T23:41:40.013Z,0.42
2023-04-26T23:44:06.596Z,0.41
2023-04-26T23:46:32.834Z,0.44
2023-04-26T23:48:59.199Z,0.42
2023-04-26T23:51:26.482Z,0.41
2023-04-26T23:53:52.652Z,0.41
2023-04-26T23:56:19.117Z,0.42
2023-04-26T23:58:45.301Z,0.44
